createdAt,value
2022-10-23T00:01:33.768Z,93561.81
2022-10-23T00:04:19.302Z,93563.16
2022-10-23T00:06:46.886Z,93560.84
2022-10-23T00:09:17.796Z,93537.38
2022-10-23T00:11:47.839Z,93557.81
2022-10-23T00:14:16.632Z,93554.84
2022-10-23T00:16:43.714Z,93544.69
2022-10-23T00:19:10.815Z,93485.84
2022-10-23T00:21:38.728Z,93551.91
2022-10-23T00:24:06.774Z,93555.25
2022-10-23T00:26:33.657Z,93550.50
2022-10-23T00:29:00.555Z,93562.06
2022-10-23T00:31:27.355Z,93561.38
2022-10-23T00:33:54.149Z,93548.09
2022-10-23T00:36:22.332Z,93554.00
2022-10-23T00:38:50.679Z,93561.09
2022-10-23T00:41:28.490Z,93558.09
2022-10-23T00:44:07.873Z,93555.78
2022-10-23T00:46:36.686Z,93558.22
2022-10-23T00:49:05.536Z,93546.03
2022-10-23T00:51:37.710Z,93547.78
2022-10-23T00:56:56.132Z,93526.22
2022-10-23T00:59:23.562Z,93532.63
2022-10-23T01:01:50.713Z,93537.56
2022-10-23T01:04:18.108Z,93513.34
2022-10-23T01:07:06.280Z,93535.16
2022-10-23T01:09:44.991Z,93530.63
2022-10-23T01:12:42.653Z,93528.44
2022-10-23T01:15:31.879Z,93520.25
2022-10-23T01:18:13.257Z,93510.72
2022-10-23T01:20:51.988Z,93516.13
2022-10-23T01:23:27.629Z,93504.06
2022-10-23T01:25:57.255Z,93498.81
2022-10-23T01:28:32.160Z,93483.47
2022-10-23T01:31:04.265Z,93500.91
2022-10-23T01:33:41.336Z,93496.94
2022-10-23T01:36:14.358Z,93493.59
2022-10-23T01:38:58.915Z,93495.00
2022-10-23T01:41:38.941Z,93487.38
2022-10-23T01:44:22.288Z,93479.25
2022-10-23T01:46:51.613Z,93463.91
2022-10-23T01:49:21.334Z,93471.00
2022-10-23T01:51:53.175Z,93482.97
2022-10-23T01:54:22.398Z,93477.38
2022-10-23T01:56:51.244Z,93476.50
2022-10-23T01:59:25.756Z,93463.75
2022-10-23T02:01:57.396Z,93476.34
2022-10-23T02:04:30.339Z,93464.63
2022-10-23T02:06:57.389Z,93448.03
2022-10-23T02:09:24.424Z,93474.72
2022-10-23T02:12:11.779Z,93463.34
2022-10-23T02:15:08.527Z,93462.44
2022-10-23T02:17:41.558Z,93471.56
2022-10-23T02:20:25.272Z,93469.53
2022-10-23T02:23:00.296Z,93477.09
2022-10-23T02:25:33.496Z,93465.50
2022-10-23T02:28:05.741Z,93463.88
2022-10-23T02:30:34.459Z,93464.75
2022-10-23T02:33:03.471Z,93437.19
2022-10-23T02:35:30.731Z,93464.13
2022-10-23T02:38:00.154Z,93457.69
2022-10-23T02:40:38.705Z,93450.78
2022-10-23T02:43:17.676Z,93447.53
2022-10-23T02:45:54.506Z,93447.22
2022-10-23T02:48:27.794Z,93427.50
2022-10-23T02:51:28.451Z,93445.63
2022-10-23T02:54:01.325Z,93435.81
2022-10-23T02:56:56.649Z,93425.38
2022-10-23T02:59:33.676Z,93420.53
2022-10-23T03:02:19.528Z,93435.84
2022-10-23T03:04:47.014Z,93434.06
2022-10-23T03:07:14.989Z,93413.19
2022-10-23T03:09:41.761Z,93414.53
2022-10-23T03:12:08.555Z,93409.88
2022-10-23T03:14:35.405Z,93377.47
2022-10-23T03:17:02.744Z,93418.78
2022-10-23T03:19:29.612Z,93379.31
2022-10-23T03:21:56.464Z,93399.84
2022-10-23T03:24:23.438Z,93391.19
2022-10-23T03:26:50.286Z,93398.19
2022-10-23T03:29:17.022Z,93398.16
2022-10-23T03:31:43.965Z,93395.03
2022-10-23T03:34:11.549Z,93386.09
2022-10-23T03:36:38.555Z,93409.75
2022-10-23T03:39:05.645Z,93409.72
2022-10-23T03:41:32.817Z,93408.09
2022-10-23T03:43:59.882Z,93384.38
2022-10-23T03:46:26.923Z,93415.88
2022-10-23T03:48:55.386Z,93408.16
2022-10-23T03:51:22.612Z,93418.94
2022-10-23T03:53:49.965Z,93415.78
2022-10-23T03:56:17.130Z,93426.53
2022-10-23T03:58:44.068Z,93425.63
2022-10-23T04:01:10.988Z,93439.13
2022-10-23T04:03:37.821Z,93435.13
2022-10-23T04:06:04.972Z,93428.50
2022-10-23T04:08:32.181Z,93431.00
2022-10-23T04:10:59.264Z,93436.28
2022-10-23T04:13:26.212Z,93407.22
2022-10-23T04:15:53.495Z,93438.19
2022-10-23T04:18:20.335Z,93400.81
2022-10-23T04:20:49.186Z,93428.44
2022-10-23T04:23:17.268Z,93437.53
2022-10-23T04:25:44.650Z,93419.44
2022-10-23T04:28:11.591Z,93433.91
2022-10-23T04:30:38.775Z,93434.91
2022-10-23T04:33:05.676Z,93430.81
2022-10-23T04:35:32.779Z,93439.44
2022-10-23T04:37:59.839Z,93434.19
2022-10-23T04:40:26.896Z,93403.44
2022-10-23T04:42:53.825Z,93436.16
2022-10-23T04:45:20.897Z,93438.66
2022-10-23T04:47:47.957Z,93407.91
2022-10-23T04:50:15.623Z,93436.81
2022-10-23T04:52:42.784Z,93423.78
2022-10-23T04:55:10.172Z,93430.47
2022-10-23T04:57:37.032Z,93405.34
2022-10-23T05:00:08.982Z,93427.19
2022-10-23T05:02:36.011Z,93411.50
2022-10-23T05:05:03.348Z,93433.78
2022-10-23T05:07:30.333Z,93441.50
2022-10-23T05:09:57.100Z,93409.00
2022-10-23T05:12:25.482Z,93441.88
2022-10-23T05:14:52.472Z,93437.69
2022-10-23T05:17:42.373Z,93436.41
2022-10-23T05:20:14.041Z,93440.00
2022-10-23T05:22:44.232Z,93425.78
2022-10-23T05:25:13.011Z,93441.81
2022-10-23T05:27:40.272Z,93449.63
2022-10-23T05:30:07.604Z,93442.97
2022-10-23T05:32:36.002Z,93453.16
2022-10-23T05:35:08.344Z,93454.06
2022-10-23T05:37:39.980Z,93454.41
2022-10-23T05:40:07.852Z,93460.63
2022-10-23T05:42:36.142Z,93447.59
2022-10-23T05:45:05.452Z,93434.41
2022-10-23T05:47:32.173Z,93467.50
2022-10-23T05:49:58.924Z,93467.91
2022-10-23T05:52:25.704Z,93463.25
2022-10-23T05:54:52.431Z,93439.00
2022-10-23T05:57:19.476Z,93463.31
2022-10-23T05:59:46.233Z,93445.31
2022-10-23T06:02:13.221Z,93428.47
2022-10-23T06:04:40.034Z,93459.38
2022-10-23T06:07:06.847Z,93454.22
2022-10-23T06:09:33.528Z,93449.34
2022-10-23T06:12:02.220Z,93448.34
2022-10-23T06:14:28.909Z,93443.94
2022-10-23T06:16:55.654Z,93418.47
2022-10-23T06:19:22.529Z,93448.56
2022-10-23T06:21:49.246Z,93452.38
2022-10-23T06:24:16.035Z,93449.41
2022-10-23T06:26:42.700Z,93449.72
2022-10-23T06:29:09.373Z,93444.44
2022-10-23T06:31:36.101Z,93448.59
2022-10-23T06:34:03.029Z,93451.81
2022-10-23T06:36:30.264Z,93437.81
2022-10-23T06:38:57.055Z,93449.22
2022-10-23T06:41:23.871Z,93453.53
2022-10-23T06:43:51.817Z,93456.38
2022-10-23T06:46:19.520Z,93463.50
2022-10-23T06:48:46.961Z,93447.59
2022-10-23T06:51:16.635Z,93471.50
2022-10-23T06:53:45.147Z,93469.41
2022-10-23T06:56:12.237Z,93470.41
2022-10-23T06:58:39.929Z,93473.75
2022-10-23T07:01:09.335Z,93473.22
2022-10-23T07:03:36.540Z,93470.28
2022-10-23T07:06:05.965Z,93464.41
2022-10-23T07:08:33.055Z,93458.03
2022-10-23T07:11:07.795Z,93462.06
2022-10-23T07:13:36.008Z,93451.13
2022-10-23T07:16:15.180Z,93450.16
2022-10-23T07:18:42.466Z,93455.41
2022-10-23T07:21:09.765Z,93446.28
2022-10-23T07:23:36.994Z,93429.03
2022-10-23T07:26:14.251Z,93422.13
2022-10-23T07:28:43.088Z,93434.69
2022-10-23T07:31:10.924Z,93430.06
2022-10-23T07:33:38.004Z,93406.13
2022-10-23T07:36:07.162Z,93417.53
2022-10-23T07:38:34.704Z,93416.44
2022-10-23T07:41:02.722Z,93416.59
2022-10-23T07:43:29.859Z,93427.28
2022-10-23T07:45:56.876Z,93405.84
2022-10-23T07:48:24.153Z,93396.63
2022-10-23T07:50:51.464Z,93410.34
2022-10-23T07:53:24.339Z,93410.34
2022-10-23T07:55:59.753Z,93408.91
2022-10-23T07:58:28.214Z,93418.06
2022-10-23T08:00:58.677Z,93407.91
2022-10-23T08:03:27.318Z,93405.91
2022-10-23T08:05:55.531Z,93402.63
2022-10-23T08:08:24.002Z,93369.53
2022-10-23T08:10:52.471Z,93375.88
2022-10-23T08:13:22.555Z,93375.28
2022-10-23T08:15:50.485Z,93363.28
2022-10-23T08:18:18.018Z,93347.19
2022-10-23T08:20:47.394Z,93358.28
2022-10-23T08:23:17.445Z,93348.06
2022-10-23T08:25:44.695Z,93333.34
2022-10-23T08:28:11.348Z,93361.31
2022-10-23T08:30:37.976Z,93348.06
2022-10-23T08:33:05.630Z,93343.34
2022-10-23T08:35:36.772Z,93343.72
2022-10-23T08:38:04.092Z,93319.69
2022-10-23T08:40:30.781Z,93326.81
2022-10-23T08:43:13.408Z,93328.44
2022-10-23T08:45:49.029Z,93322.88
2022-10-23T08:48:34.977Z,93307.69
2022-10-23T08:51:25.395Z,93306.81
2022-10-23T08:53:55.384Z,93299.53
2022-10-23T08:56:28.694Z,93308.69
2022-10-23T08:59:20.401Z,93296.59
2022-10-23T09:01:52.413Z,93284.34
2022-10-23T09:04:19.603Z,93280.09
2022-10-23T09:07:14.622Z,93289.66
2022-10-23T09:09:50.040Z,93283.81
2022-10-23T09:12:20.601Z,93285.88
2022-10-23T09:15:15.069Z,93287.66
2022-10-23T09:17:43.891Z,93290.38
2022-10-23T09:20:20.382Z,93281.75
2022-10-23T09:22:49.509Z,93281.19
2022-10-23T09:25:20.593Z,93277.16
2022-10-23T09:27:56.095Z,93264.28
2022-10-23T09:30:39.671Z,93265.59
2022-10-23T09:33:25.869Z,93250.47
2022-10-23T09:35:55.640Z,93246.78
2022-10-23T09:38:29.526Z,93230.91
2022-10-23T09:40:58.832Z,93253.72
2022-10-23T09:43:27.522Z,93266.31
2022-10-23T09:45:59.709Z,93233.88
2022-10-23T09:48:27.103Z,93248.25
2022-10-23T09:50:59.700Z,93251.06
2022-10-23T09:53:35.272Z,93268.09
2022-10-23T09:56:14.267Z,93265.34
2022-10-23T09:58:53.863Z,93271.72
2022-10-23T10:01:29.508Z,93263.50
2022-10-23T10:03:57.295Z,93253.53
2022-10-23T10:06:33.337Z,93256.03
2022-10-23T10:09:04.181Z,93262.78
2022-10-23T10:12:07.003Z,93257.91
2022-10-23T10:14:39.354Z,93275.13
2022-10-23T10:17:20.403Z,93271.94
2022-10-23T10:19:56.067Z,93273.69
2022-10-23T10:22:47.599Z,93281.84
2022-10-23T10:25:21.800Z,93274.94
2022-10-23T10:28:03.505Z,93276.69
2022-10-23T10:31:05.048Z,93282.63
2022-10-23T10:33:58.480Z,93274.84
2022-10-23T10:36:28.225Z,93282.75
2022-10-23T10:39:03.241Z,93281.00
2022-10-23T10:41:45.589Z,93273.09
2022-10-23T10:44:18.001Z,93265.88
2022-10-23T10:47:33.404Z,93259.06
2022-10-23T10:50:19.542Z,93256.59
2022-10-23T10:53:04.595Z,93254.00
2022-10-23T10:55:39.032Z,93247.34
2022-10-23T10:58:24.132Z,93254.56
2022-10-23T11:00:58.340Z,93262.91
2022-10-23T11:03:39.827Z,93248.69
2022-10-23T11:06:20.364Z,93239.63
2022-10-23T11:08:57.170Z,93245.53
2022-10-23T11:11:32.957Z,93224.06
2022-10-23T11:13:59.823Z,93239.13
2022-10-23T11:16:39.649Z,93223.72
2022-10-23T11:19:14.102Z,93205.38
2022-10-23T11:21:40.991Z,93217.81
2022-10-23T11:24:19.829Z,93219.00
2022-10-23T11:27:11.028Z,93211.72
2022-10-23T11:29:51.695Z,93224.34
2022-10-23T11:33:02.809Z,93217.72
2022-10-23T11:35:47.358Z,93236.41
2022-10-23T11:38:38.786Z,93202.41
2022-10-23T11:41:27.385Z,93193.72
2022-10-23T11:44:03.534Z,93201.66
2022-10-23T11:46:35.133Z,93186.88
2022-10-23T11:49:05.847Z,93147.84
2022-10-23T11:51:37.043Z,93175.00
2022-10-23T11:54:15.568Z,93168.38
2022-10-23T11:57:14.725Z,93150.91
2022-10-23T11:59:52.447Z,93129.47
2022-10-23T12:02:38.376Z,93134.75
2022-10-23T12:05:31.999Z,93153.44
2022-10-23T12:08:00.932Z,93145.66
2022-10-23T12:10:34.351Z,93137.84
2022-10-23T12:13:04.156Z,93115.44
2022-10-23T12:15:34.780Z,93119.97
2022-10-23T12:18:16.111Z,93123.13
2022-10-23T12:20:54.224Z,93129.34
2022-10-23T12:23:26.712Z,93115.19
2022-10-23T12:26:02.266Z,93085.59
2022-10-23T12:28:34.828Z,93092.63
2022-10-23T12:31:04.221Z,93076.16
2022-10-23T12:33:49.363Z,93069.69
2022-10-23T12:36:22.473Z,93066.09
2022-10-23T12:38:49.874Z,93076.22
2022-10-23T12:41:27.958Z,93082.34
2022-10-23T12:44:05.662Z,93084.50
2022-10-23T12:46:46.967Z,93090.97
2022-10-23T12:49:22.505Z,93080.81
2022-10-23T12:52:00.754Z,93077.00
2022-10-23T12:54:28.028Z,93083.16
2022-10-23T12:56:54.916Z,93072.66
2022-10-23T12:59:26.472Z,93082.78
2022-10-23T13:01:54.548Z,93083.44
2022-10-23T13:04:34.768Z,93080.72
2022-10-23T13:07:03.240Z,93092.47
2022-10-23T13:09:32.021Z,93090.19
2022-10-23T13:12:00.773Z,93072.31
2022-10-23T13:14:43.573Z,93074.84
2022-10-23T13:17:12.137Z,93070.22
2022-10-23T13:19:38.831Z,93065.44
2022-10-23T13:22:18.039Z,93072.25
2022-10-23T13:24:44.692Z,93081.34
2022-10-23T13:27:34.758Z,93111.97
2022-10-23T13:30:02.015Z,93123.63
2022-10-23T13:32:30.405Z,93096.75
2022-10-23T13:35:20.845Z,93091.91
2022-10-23T13:37:48.989Z,93097.63
2022-10-23T13:40:25.677Z,93079.81
2022-10-23T13:42:57.148Z,93051.66
2022-10-23T13:45:25.999Z,93061.59
2022-10-23T13:47:52.986Z,93065.56
2022-10-23T13:50:19.826Z,93062.34
2022-10-23T13:52:46.584Z,93069.13
2022-10-23T13:55:25.435Z,93064.31
2022-10-23T13:57:52.305Z,93073.94
2022-10-23T14:00:19.016Z,93089.03
2022-10-23T14:02:45.699Z,93110.56
2022-10-23T14:05:12.500Z,93148.25
2022-10-23T14:07:39.132Z,93159.53
2022-10-23T14:10:06.167Z,93153.47
2022-10-23T14:12:42.268Z,93167.22
2022-10-23T14:15:10.460Z,93152.59
2022-10-23T14:17:37.088Z,93149.16
2022-10-23T14:20:06.099Z,93154.69
2022-10-23T14:22:33.156Z,93154.00
2022-10-23T14:24:59.820Z,93152.84
2022-10-23T14:27:26.474Z,93137.75
2022-10-23T14:29:53.080Z,93156.34
2022-10-23T14:32:19.720Z,93142.75
2022-10-23T14:34:51.347Z,93135.84
2022-10-23T14:37:19.474Z,93132.09
2022-10-23T14:39:50.006Z,93133.59
2022-10-23T14:42:17.399Z,93127.25
2022-10-23T14:44:44.817Z,93132.09
2022-10-23T14:47:11.814Z,93116.81
2022-10-23T14:49:40.090Z,93103.75
2022-10-23T14:52:07.547Z,93083.06
2022-10-23T14:54:36.299Z,93106.91
2022-10-23T14:57:03.580Z,93066.50
2022-10-23T14:59:30.300Z,93094.75
2022-10-23T15:01:56.916Z,93095.28
2022-10-23T15:04:23.813Z,93098.91
2022-10-23T15:06:50.669Z,93100.97
2022-10-23T15:09:19.664Z,93096.75
2022-10-23T15:11:46.984Z,93101.06
2022-10-23T15:14:13.777Z,93113.69
2022-10-23T15:16:43.168Z,93108.53
2022-10-23T15:19:18.202Z,93079.66
2022-10-23T15:21:49.395Z,93082.41
2022-10-23T15:24:16.674Z,93081.38
2022-10-23T15:26:43.967Z,93064.91
2022-10-23T15:29:11.587Z,93072.44
2022-10-23T15:31:38.189Z,93087.75
2022-10-23T15:34:06.114Z,93100.81
2022-10-23T15:36:33.361Z,93098.13
2022-10-23T15:39:00.359Z,93082.09
2022-10-23T15:41:32.297Z,93107.75
2022-10-23T15:44:00.540Z,93089.91
2022-10-23T15:46:27.509Z,93087.59
2022-10-23T15:48:54.427Z,93079.53
2022-10-23T15:51:22.198Z,93062.31
2022-10-23T15:53:49.015Z,93047.94
2022-10-23T15:56:15.721Z,93050.31
2022-10-23T15:58:42.510Z,93046.97
2022-10-23T16:01:09.409Z,93001.13
2022-10-23T16:03:37.399Z,93011.69
2022-10-23T16:06:09.496Z,93023.22
2022-10-23T16:08:36.475Z,93032.56
2022-10-23T16:11:04.111Z,93014.84
2022-10-23T16:13:30.729Z,93010.03
2022-10-23T16:15:57.427Z,93017.00
2022-10-23T16:18:24.102Z,93010.06
2022-10-23T16:20:50.947Z,93011.47
2022-10-23T16:23:17.813Z,93012.81
2022-10-23T16:25:46.345Z,93019.84
2022-10-23T16:28:13.020Z,93030.84
2022-10-23T16:30:43.798Z,93044.56
2022-10-23T16:33:10.488Z,93055.19
2022-10-23T16:35:37.294Z,93054.38
2022-10-23T16:38:04.068Z,93069.91
2022-10-23T16:40:31.059Z,93096.72
2022-10-23T16:42:58.630Z,93116.56
2022-10-23T16:45:25.251Z,93123.13
2022-10-23T16:47:51.928Z,93123.41
2022-10-23T16:50:18.584Z,93089.44
2022-10-23T16:52:45.739Z,93114.22
2022-10-23T16:55:13.096Z,93134.53
2022-10-23T16:57:39.664Z,93113.47
2022-10-23T17:00:07.285Z,93128.16
2022-10-23T17:02:34.415Z,93123.25
2022-10-23T17:05:01.083Z,93122.94
2022-10-23T17:07:27.763Z,93145.00
2022-10-23T17:09:54.397Z,93143.47
2022-10-23T17:12:21.007Z,93135.69
2022-10-23T17:14:47.653Z,93133.31
2022-10-23T17:17:14.319Z,93145.19
2022-10-23T17:19:45.962Z,93167.72
2022-10-23T17:22:13.828Z,93179.94
2022-10-23T17:24:41.886Z,93178.06
2022-10-23T17:27:08.767Z,93199.66
2022-10-23T17:29:35.920Z,93196.75
2022-10-23T17:32:03.104Z,93220.53
2022-10-23T17:34:29.951Z,93220.81
2022-10-23T17:36:57.122Z,93234.09
2022-10-23T17:39:26.691Z,93245.97
2022-10-23T17:41:54.061Z,93250.59
2022-10-23T17:44:20.981Z,93249.41
2022-10-23T17:46:54.047Z,93274.66
2022-10-23T17:49:21.518Z,93284.16
2022-10-23T17:51:52.700Z,93289.59
2022-10-23T17:54:19.388Z,93288.13
2022-10-23T17:56:46.554Z,93279.00
2022-10-23T17:59:15.384Z,93258.44
2022-10-23T18:01:48.138Z,93274.66
2022-10-23T18:04:17.480Z,93289.59
2022-10-23T18:06:47.624Z,93270.75
2022-10-23T18:09:14.700Z,93313.16
2022-10-23T18:11:45.276Z,93317.69
2022-10-23T18:14:15.601Z,93336.16
2022-10-23T18:16:42.285Z,93341.59
2022-10-23T18:19:10.379Z,93368.94
2022-10-23T18:21:38.008Z,93346.59
2022-10-23T18:24:04.997Z,93384.66
2022-10-23T18:26:34.880Z,93374.38
2022-10-23T18:29:04.200Z,93387.66
2022-10-23T18:31:30.972Z,93393.63
2022-10-23T18:34:01.370Z,93391.31
2022-10-23T18:36:30.487Z,93404.09
2022-10-23T18:38:57.489Z,93405.03
2022-10-23T18:41:24.332Z,93403.88
2022-10-23T18:43:51.722Z,93390.53
2022-10-23T18:46:19.359Z,93399.59
2022-10-23T18:48:47.060Z,93407.47
2022-10-23T18:51:19.919Z,93412.97
2022-10-23T18:53:47.289Z,93403.78
2022-10-23T18:56:15.470Z,93411.19
2022-10-23T18:58:42.461Z,93428.78
2022-10-23T19:01:09.222Z,93415.81
2022-10-23T19:03:35.868Z,93444.69
2022-10-23T19:06:02.673Z,93445.56
2022-10-23T19:08:29.248Z,93446.31
2022-10-23T19:11:00.067Z,93430.19
2022-10-23T19:13:27.122Z,93441.56
2022-10-23T19:15:53.983Z,93443.66
2022-10-23T19:18:20.755Z,93427.28
2022-10-23T19:20:47.408Z,93409.97
2022-10-23T19:23:15.945Z,93425.41
2022-10-23T19:25:45.236Z,93437.28
2022-10-23T19:28:11.917Z,93425.97
2022-10-23T19:30:39.881Z,93420.06
2022-10-23T19:33:06.466Z,93428.31
2022-10-23T19:35:33.707Z,93433.78
2022-10-23T19:38:00.312Z,93446.00
2022-10-23T19:40:27.114Z,93431.19
2022-10-23T19:42:54.306Z,93447.94
2022-10-23T19:45:22.575Z,93432.78
2022-10-23T19:47:49.244Z,93460.09
2022-10-23T19:50:16.171Z,93473.22
2022-10-23T19:52:42.936Z,93455.44
2022-10-23T19:55:09.855Z,93463.88
2022-10-23T19:57:37.152Z,93494.03
2022-10-23T20:00:07.912Z,93497.16
2022-10-23T20:05:05.664Z,93506.72
2022-10-23T20:07:32.952Z,93485.50
2022-10-23T20:10:00.357Z,93475.22
2022-10-23T20:12:27.405Z,93463.34
2022-10-23T20:14:54.927Z,93482.53
2022-10-23T20:17:22.212Z,93475.81
2022-10-23T20:19:49.783Z,93499.13
2022-10-23T20:22:17.038Z,93483.06
2022-10-23T20:24:43.700Z,93501.81
2022-10-23T20:27:10.790Z,93471.41
2022-10-23T20:29:37.421Z,93463.50
2022-10-23T20:32:04.199Z,93452.53
2022-10-23T20:34:31.295Z,93453.00
2022-10-23T20:36:58.123Z,93387.44
2022-10-23T20:39:26.426Z,93392.84
2022-10-23T20:41:55.290Z,93359.34
2022-10-23T20:44:22.654Z,93388.84
2022-10-23T20:46:49.820Z,93399.19
2022-10-23T20:49:17.046Z,93333.97
2022-10-23T20:51:45.045Z,93326.59
2022-10-23T20:54:11.821Z,93336.72
2022-10-23T20:56:39.797Z,93345.16
2022-10-23T20:59:10.505Z,93335.28
2022-10-23T21:01:40.595Z,93328.13
2022-10-23T21:04:07.324Z,93337.84
2022-10-23T21:06:45.891Z,93324.78
2022-10-23T21:09:21.247Z,93339.75
2022-10-23T21:11:48.052Z,93320.84
2022-10-23T21:14:14.655Z,93316.41
2022-10-23T21:16:44.378Z,93303.06
2022-10-23T21:19:13.980Z,93291.81
2022-10-23T21:21:40.658Z,93292.75
2022-10-23T21:24:10.107Z,93287.41
2022-10-23T21:26:36.833Z,93273.03
2022-10-23T21:29:18.000Z,93272.88
2022-10-23T21:31:50.744Z,93253.28
2022-10-23T21:34:17.418Z,93276.38
2022-10-23T21:37:10.729Z,93229.06
2022-10-23T21:39:33.071Z,93290.09
2022-10-23T21:41:59.668Z,93261.38
2022-10-23T21:44:26.412Z,93272.91
2022-10-23T21:46:53.051Z,93286.13
2022-10-23T21:49:19.719Z,93280.47
2022-10-23T21:51:47.306Z,93278.25
2022-10-23T21:54:17.227Z,93282.31
2022-10-23T21:56:49.075Z,93281.81
2022-10-23T21:59:19.874Z,93291.59
2022-10-23T22:01:48.349Z,93271.19
2022-10-23T22:04:17.305Z,93270.66
2022-10-23T22:06:45.044Z,93253.41
2022-10-23T22:09:15.464Z,93263.69
2022-10-23T22:11:42.556Z,93238.94
2022-10-23T22:14:09.376Z,93269.97
2022-10-23T22:16:36.021Z,93270.19
2022-10-23T22:19:03.560Z,93265.53
2022-10-23T22:21:30.947Z,93289.28
2022-10-23T22:23:58.882Z,93300.81
2022-10-23T22:26:31.954Z,93293.84
2022-10-23T22:29:01.147Z,93294.50
2022-10-23T22:31:31.594Z,93270.66
2022-10-23T22:33:59.268Z,93302.38
2022-10-23T22:36:26.224Z,93298.66
2022-10-23T22:38:54.059Z,93291.91
2022-10-23T22:41:21.099Z,93298.59
2022-10-23T22:43:47.792Z,93300.06
2022-10-23T22:46:17.389Z,93307.53
2022-10-23T22:48:44.807Z,93304.28
2022-10-23T22:51:14.219Z,93314.50
2022-10-23T22:53:42.112Z,93299.53
2022-10-23T22:56:11.083Z,93285.13
2022-10-23T22:58:37.933Z,93322.25
2022-10-23T23:01:15.194Z,93330.88
2022-10-23T23:03:42.925Z,93312.75
2022-10-23T23:06:09.857Z,93329.50
2022-10-23T23:08:38.185Z,93331.13
2022-10-23T23:11:05.781Z,93347.13
2022-10-23T23:13:32.829Z,93324.06
2022-10-23T23:16:00.139Z,93343.88
2022-10-23T23:18:26.881Z,93349.06
2022-10-23T23:20:53.750Z,93323.88
2022-10-23T23:23:20.600Z,93369.03
2022-10-23T23:25:49.716Z,93418.16
2022-10-23T23:28:18.836Z,93468.25
2022-10-23T23:33:14.604Z,93496.66
2022-10-23T23:35:42.949Z,93487.59
2022-10-23T23:38:10.297Z,93474.94
2022-10-23T23:40:37.142Z,93464.13
2022-10-23T23:43:03.947Z,93479.69
2022-10-23T23:45:30.960Z,93440.34
2022-10-23T23:47:58.584Z,93460.38
2022-10-23T23:50:27.851Z,93446.38
2022-10-23T23:52:54.516Z,93435.25
2022-10-23T23:55:21.186Z,93441.16
2022-10-23T23:57:48.021Z,93426.84
